Airports

 

 

Airport Name Latest METAR Visual Conditions
Atlanta International (ATL) KATL 241452Z COR 00000KT 10SM FEW025 FEW150 SCT200 SCT250 28/21 A3007 RMK AO2 SLP172 T02830211 50006 VFR
Asheville Regional (AVL) KAVL 241506Z VRB04KT 10SM OVC012 21/18 A3018 RMK AO2 RAE05 P0000 T02110183 MVFR
Birmingham International (BHM) KBHM 241453Z 34005KT 10SM FEW020 FEW150 SCT250 29/23 A3008 RMK AO2 SLP176 T02890228 50005 VFR
Chattanooga (CHA) KCHA 241453Z 01007KT 10SM BKN014 BKN025 BKN070 BKN250 27/22 A3008 RMK AO2 SLP177 T02670222 50004 PNO $ MVFR
Charlotte International (CLT) KCLT 241452Z 04007KT 6SM -RA BR BKN007 OVC012 19/18 A3015 RMK AO2 RAB27 CIG 005V009 SLP202 P0002 60002 T01940178 51014 IFR
Greensboro Piedmont-Triad (GSO) KGSO 241454Z 04011KT 10SM BKN012 OVC029 18/17 A3016 RMK AO2 SLP206 T01780167 51009 MVFR
Greenville-Spartanburg International (GSP) KGSP 241453Z 02013KT 10SM OVC004 21/19 A3014 RMK AO2 SLP196 T02110189 53017 LIFR
Middle Georgia Regional Airport (MCN) KMCN 241453Z COR 05005KT 10SM FEW055 FEW075 BKN095 27/22 A3006 RMK AO2 SLP174 T02670222 51008 $ VFR
Tri-Cities Airport (TRI) KTRI 241453Z 04004KT 10SM BKN016 OVC060 23/19 A3014 RMK AO2 SLP182 T02330189 51006 MVFR
Knoxville Regional (TYS) KTYS 241515Z VRB03KT 10SM BKN015 BKN070 25/21 A3009 RMK AO2 T02500206 $ MVFR